Time;durP1;ratioP1;P1;durP2;ratioP2;P2;SDS_P1;SDS_P2;PMS_P1;PMS_P2;Temp;Humidity;BMP_temperature;BMP_pressure;BME280_temperature;BME280_humidity;BME280_pressure;Samples;Min_cycle;Max_cycle;Signal;HPM_P1;HPM_P2
2021/08/17 00:00:04;;;;;;;10.50;3.83;;;15.60;96.80;;;;;;4996400;28;20544;-70
2021/08/17 00:02:30;;;;;;;4.33;2.40;;;15.70;96.80;;;;;;5003988;28;20246;-70
2021/08/17 00:04:56;;;;;;;6.60;2.30;;;15.60;96.80;;;;;;5002052;28;20554;-70
2021/08/17 00:07:22;;;;;;;3.30;2.33;;;15.60;97.10;;;;;;5002063;28;20213;-69
2021/08/17 00:09:49;;;;;;;3.53;2.77;;;15.60;96.60;;;;;;5001771;28;20220;-69
2021/08/17 00:12:15;;;;;;;3.33;2.67;;;15.60;96.60;;;;;;5003965;28;20291;-69
2021/08/17 00:14:40;;;;;;;4.80;2.60;;;15.60;96.60;;;;;;4987358;28;21012;-70
2021/08/17 00:17:09;;;;;;;5.53;2.70;;;15.60;96.60;;;;;;5001466;28;20225;-69
2021/08/17 00:19:40;;;;;;;3.07;2.10;;;15.60;96.60;;;;;;4987748;28;20240;-70
2021/08/17 00:22:07;;;;;;;2.97;2.10;;;15.50;96.50;;;;;;4985586;28;20464;-70
2021/08/17 00:24:34;;;;;;;4.60;2.50;;;15.60;96.50;;;;;;5002966;28;20829;-69
2021/08/17 00:27:00;;;;;;;4.63;2.53;;;15.50;96.50;;;;;;4985823;28;20870;-70
2021/08/17 00:29:26;;;;;;;3.43;2.43;;;15.50;96.40;;;;;;5003119;28;20996;-71
2021/08/17 00:31:51;;;;;;;3.90;2.47;;;15.50;96.40;;;;;;5001812;28;20480;-69
2021/08/17 00:34:17;;;;;;;3.03;2.43;;;15.50;96.40;;;;;;5003527;28;20225;-69
2021/08/17 00:36:43;;;;;;;3.33;2.40;;;15.50;96.40;;;;;;4998127;28;20282;-69
2021/08/17 00:39:09;;;;;;;2.03;1.83;;;15.50;96.40;;;;;;5001925;28;20300;-69
2021/08/17 00:41:38;;;;;;;6.80;3.30;;;15.40;96.30;;;;;;5003357;28;20221;-70
2021/08/17 00:44:17;;;;;;;8.03;2.60;;;15.30;96.50;;;;;;4999933;28;20909;-69
2021/08/17 00:46:44;;;;;;;4.20;2.40;;;15.20;96.50;;;;;;5004995;28;20468;-70
2021/08/17 00:49:09;;;;;;;3.43;2.73;;;15.20;96.60;;;;;;5005105;28;20452;-70
2021/08/17 00:51:35;;;;;;;4.37;2.50;;;15.20;96.70;;;;;;5006778;28;20463;-70
2021/08/17 00:54:01;;;;;;;4.50;2.47;;;15.10;96.90;;;;;;5004799;28;20225;-69
2021/08/17 00:56:27;;;;;;;3.27;2.50;;;15.10;96.90;;;;;;4990042;28;20456;-69
2021/08/17 00:58:52;;;;;;;5.60;3.30;;;14.90;97.10;;;;;;5005234;28;20632;-69
2021/08/17 01:01:19;;;;;;;6.67;3.43;;;14.90;97.30;;;;;;5006995;28;20270;-70
2021/08/17 01:03:45;;;;;;;3.00;2.80;;;14.80;97.60;;;;;;4987770;28;20313;-71
2021/08/17 01:06:10;;;;;;;4.03;3.07;;;14.70;97.70;;;;;;5007539;28;21128;-70
2021/08/17 01:08:36;;;;;;;6.27;2.87;;;14.60;97.90;;;;;;5006535;28;20267;-70
2021/08/17 01:11:03;;;;;;;5.33;3.17;;;14.50;98.20;;;;;;4988251;28;20224;-69
2021/08/17 01:13:29;;;;;;;6.27;2.73;;;14.50;98.30;;;;;;4988684;28;20225;-70
2021/08/17 01:15:55;;;;;;;4.87;2.77;;;14.40;98.50;;;;;;5004627;28;20470;-70
2021/08/17 01:18:21;;;;;;;7.80;2.80;;;14.40;98.70;;;;;;5006645;28;20249;-70
2021/08/17 01:20:50;;;;;;;4.87;3.30;;;14.40;98.80;;;;;;4982525;28;20461;-70
2021/08/17 01:23:20;;;;;;;8.43;2.50;;;14.20;99.10;;;;;;5006410;28;20221;-69
2021/08/17 01:25:46;;;;;;;4.73;2.90;;;14.20;99.30;;;;;;5004264;28;20488;-70
2021/08/17 01:28:12;;;;;;;4.10;2.93;;;14.10;99.60;;;;;;5006657;28;20483;-70
2021/08/17 01:30:37;;;;;;;5.80;2.90;;;14.10;99.70;;;;;;4986027;28;20491;-70
2021/08/17 01:33:03;;;;;;;5.20;3.07;;;14.10;99.80;;;;;;5004637;28;20236;-70
2021/08/17 01:35:30;;;;;;;5.73;3.10;;;14.10;99.90;;;;;;4987036;28;20600;-69
2021/08/17 01:37:56;;;;;;;3.60;2.70;;;14.00;99.90;;;;;;5005651;28;20229;-69
2021/08/17 01:40:22;;;;;;;6.83;3.60;;;14.00;99.90;;;;;;5006323;28;20467;-70
2021/08/17 01:42:51;;;;;;;3.93;2.63;;;14.00;99.90;;;;;;4988033;28;20294;-69
2021/08/17 01:45:18;;;;;;;4.87;3.17;;;13.90;99.90;;;;;;4985791;28;20238;-69
2021/08/17 01:47:48;;;;;;;7.07;2.90;;;13.90;99.90;;;;;;5006082;28;20464;-70
2021/08/17 01:50:14;;;;;;;5.70;3.43;;;13.90;99.90;;;;;;5003302;28;20467;-70
2021/08/17 01:52:40;;;;;;;7.37;2.67;;;13.80;99.90;;;;;;4989502;28;20543;-70
2021/08/17 01:55:07;;;;;;;3.50;2.93;;;13.80;99.90;;;;;;4999025;28;20531;-70
2021/08/17 01:57:35;;;;;;;3.77;2.70;;;13.80;99.90;;;;;;4986264;28;20222;-69
2021/08/17 02:00:00;;;;;;;4.90;2.87;;;13.80;99.90;;;;;;5000253;28;20457;-69
2021/08/17 02:02:26;;;;;;;4.67;3.53;;;13.80;99.90;;;;;;5002261;28;20553;-70
2021/08/17 02:04:52;;;;;;;5.03;3.03;;;13.90;99.90;;;;;;5002899;28;20268;-69
2021/08/17 02:07:17;;;;;;;5.50;3.77;;;13.80;99.90;;;;;;5005560;28;20217;-70
2021/08/17 02:09:43;;;;;;;5.03;3.17;;;13.80;99.90;;;;;;5005804;28;20222;-69
2021/08/17 02:12:09;;;;;;;5.77;3.43;;;13.80;99.90;;;;;;4987569;28;20300;-69
2021/08/17 02:14:35;;;;;;;4.30;3.20;;;13.80;99.90;;;;;;4996153;28;20737;-69
2021/08/17 02:17:01;;;;;;;4.73;3.17;;;13.70;99.90;;;;;;4987683;28;20225;-70
2021/08/17 02:19:27;;;;;;;4.93;3.23;;;13.70;99.90;;;;;;4989471;28;20570;-69
2021/08/17 02:21:52;;;;;;;4.50;2.83;;;13.70;99.90;;;;;;4981071;28;20222;-70
2021/08/17 02:24:18;;;;;;;5.23;3.90;;;13.70;99.90;;;;;;4993652;28;20230;-70
2021/08/17 02:26:44;;;;;;;4.83;3.13;;;13.70;99.90;;;;;;5002098;28;20230;-69
2021/08/17 02:29:09;;;;;;;4.10;3.40;;;13.70;99.90;;;;;;5000562;28;20310;-70
2021/08/17 02:31:35;;;;;;;5.63;3.80;;;13.70;99.90;;;;;;4998180;28;20229;-70
2021/08/17 02:34:01;;;;;;;4.43;3.17;;;13.70;99.90;;;;;;5003538;28;20308;-69
2021/08/17 02:36:26;;;;;;;9.50;3.80;;;13.70;99.90;;;;;;5005798;28;20254;-69
2021/08/17 02:38:52;;;;;;;5.53;3.07;;;13.60;99.90;;;;;;4984053;28;20252;-70
2021/08/17 02:41:18;;;;;;;6.57;3.73;;;13.50;99.90;;;;;;5001940;28;20218;-69
2021/08/17 02:43:43;;;;;;;5.13;3.50;;;13.50;99.90;;;;;;5001829;28;20230;-69
2021/08/17 02:46:09;;;;;;;4.57;3.47;;;13.40;99.90;;;;;;4999921;28;20465;-69
2021/08/17 02:48:35;;;;;;;6.87;3.60;;;13.40;99.90;;;;;;5002026;28;20250;-70
2021/08/17 02:51:00;;;;;;;7.83;3.60;;;13.50;99.90;;;;;;4986464;28;20698;-68
2021/08/17 02:53:26;;;;;;;9.83;5.20;;;13.40;99.90;;;;;;5005326;28;20638;-70
2021/08/17 02:55:52;;;;;;;6.27;4.13;;;13.40;99.90;;;;;;5003451;28;20217;-69
2021/08/17 02:58:17;;;;;;;5.53;3.77;;;13.40;99.90;;;;;;5005047;28;20702;-70
2021/08/17 03:00:44;;;;;;;6.50;3.80;;;13.40;99.90;;;;;;5005233;28;20229;-69
2021/08/17 03:03:11;;;;;;;9.37;4.40;;;13.40;99.90;;;;;;5090740;28;20244;-70
2021/08/17 03:05:38;;;;;;;6.30;3.23;;;13.40;99.90;;;;;;5072319;27;20463;-70
2021/08/17 03:08:04;;;;;;;4.63;3.40;;;13.50;99.90;;;;;;4982059;28;20590;-69
2021/08/17 03:10:33;;;;;;;4.87;3.13;;;13.50;99.90;;;;;;5008236;28;20456;-69
2021/08/17 03:12:59;;;;;;;4.63;3.30;;;13.50;99.90;;;;;;5005634;28;20496;-69
2021/08/17 03:15:25;;;;;;;7.13;4.10;;;13.50;99.90;;;;;;4993980;28;20465;-69
2021/08/17 03:17:51;;;;;;;5.17;3.30;;;13.50;99.90;;;;;;5011071;28;20475;-70
2021/08/17 03:20:18;;;;;;;5.57;3.63;;;13.50;99.90;;;;;;5009123;28;20220;-70
2021/08/17 03:22:44;;;;;;;5.30;3.40;;;13.50;99.90;;;;;;5008863;28;20489;-70
2021/08/17 03:25:12;;;;;;;5.63;3.77;;;13.50;99.90;;;;;;5003670;28;20476;-70
2021/08/17 03:27:38;;;;;;;5.90;3.77;;;13.50;99.90;;;;;;5026026;28;20459;-69
2021/08/17 03:30:07;;;;;;;8.20;3.23;;;13.40;99.90;;;;;;5010375;28;20457;-69
2021/08/17 03:32:33;;;;;;;5.20;3.30;;;13.40;99.90;;;;;;5018048;28;20823;-69
2021/08/17 03:34:58;;;;;;;7.63;3.70;;;13.40;99.90;;;;;;4987587;28;20464;-70
2021/08/17 03:37:24;;;;;;;8.73;4.73;;;13.40;99.90;;;;;;4988370;28;20213;-69
2021/08/17 03:39:50;;;;;;;6.50;4.03;;;13.40;99.90;;;;;;4997477;28;20300;-70
2021/08/17 03:42:15;;;;;;;6.30;3.90;;;13.40;99.90;;;;;;5036495;28;20216;-70
2021/08/17 03:44:41;;;;;;;5.17;3.90;;;13.40;99.90;;;;;;5016129;28;20284;-69
2021/08/17 03:47:07;;;;;;;11.43;4.40;;;13.30;99.90;;;;;;5085306;28;20779;-69
2021/08/17 03:49:32;;;;;;;7.60;4.10;;;13.30;99.90;;;;;;5073944;27;20209;-69
2021/08/17 03:51:59;;;;;;;7.47;4.30;;;13.20;99.90;;;;;;4982728;28;20687;-70
2021/08/17 03:54:24;;;;;;;6.40;4.10;;;13.20;99.90;;;;;;5000979;28;20246;-69
2021/08/17 03:56:50;;;;;;;9.47;4.10;;;13.10;99.90;;;;;;4987483;28;20489;-70
2021/08/17 03:59:15;;;;;;;6.93;4.70;;;13.10;99.90;;;;;;4991384;28;20312;-69
2021/08/17 04:01:41;;;;;;;5.17;3.53;;;13.10;99.90;;;;;;5003995;28;20245;-69
2021/08/17 04:04:07;;;;;;;5.40;4.00;;;13.10;99.90;;;;;;4983485;28;20224;-68
2021/08/17 04:06:32;;;;;;;10.97;5.67;;;13.10;99.90;;;;;;5002097;28;20224;-69
2021/08/17 04:08:58;;;;;;;6.67;3.97;;;13.20;99.90;;;;;;5037609;28;20226;-68
2021/08/17 04:11:24;;;;;;;4.40;3.40;;;13.20;99.90;;;;;;5000763;28;20267;-69
2021/08/17 04:13:49;;;;;;;10.23;4.97;;;13.20;99.90;;;;;;4999584;28;20346;-70
2021/08/17 04:16:15;;;;;;;5.23;3.90;;;13.20;99.90;;;;;;4992274;28;20218;-69
2021/08/17 04:18:41;;;;;;;6.10;3.77;;;13.30;99.90;;;;;;5000371;28;20210;-69
2021/08/17 04:21:06;;;;;;;8.30;4.23;;;13.30;99.90;;;;;;4985207;28;20216;-69
2021/08/17 04:23:32;;;;;;;6.33;3.30;;;13.30;99.90;;;;;;5003541;28;20394;-70
2021/08/17 04:25:58;;;;;;;6.40;4.03;;;13.30;99.90;;;;;;5001717;28;20234;-69
2021/08/17 04:28:24;;;;;;;8.37;4.53;;;13.30;99.90;;;;;;5003399;28;20706;-69
2021/08/17 04:30:49;;;;;;;7.27;4.67;;;13.20;99.90;;;;;;4981449;28;20457;-69
2021/08/17 04:33:15;;;;;;;11.40;5.37;;;13.20;99.90;;;;;;4990720;28;20228;-70
2021/08/17 04:35:41;;;;;;;10.63;4.50;;;13.10;99.90;;;;;;5002598;28;20232;-70
2021/08/17 04:38:06;;;;;;;8.17;5.00;;;13.10;99.90;;;;;;4982295;28;20613;-69
2021/08/17 04:40:32;;;;;;;9.40;5.00;;;13.00;99.90;;;;;;5000382;28;20256;-69
2021/08/17 04:42:58;;;;;;;10.63;5.93;;;12.90;99.90;;;;;;4983923;28;20226;-69
2021/08/17 04:45:25;;;;;;;8.90;4.53;;;13.00;99.90;;;;;;5002223;28;20264;-69
2021/08/17 04:47:52;;;;;;;10.67;4.40;;;13.00;99.90;;;;;;5001500;28;20317;-70
2021/08/17 04:50:19;;;;;;;5.87;4.10;;;13.00;99.90;;;;;;5001351;28;20464;-69
2021/08/17 04:52:45;;;;;;;6.23;4.67;;;13.00;99.90;;;;;;5003171;28;20448;-69
2021/08/17 04:55:11;;;;;;;9.90;5.60;;;13.00;99.90;;;;;;5087112;28;20815;-69
2021/08/17 04:57:54;;;;;;;8.27;4.40;;;13.00;99.90;;;;;;5075303;28;20455;-70
2021/08/17 05:00:21;;;;;;;7.57;4.90;;;12.90;99.90;;;;;;5013181;28;20274;-69
2021/08/17 05:02:47;;;;;;;8.00;4.53;;;12.90;99.90;;;;;;5051250;28;20463;-69
2021/08/17 05:05:13;;;;;;;16.17;6.97;;;12.90;99.90;;;;;;5022338;28;20492;-70
2021/08/17 05:07:39;;;;;;;9.60;5.57;;;12.90;99.90;;;;;;5046986;28;20455;-70
2021/08/17 05:10:07;;;;;;;6.10;4.57;;;12.90;99.90;;;;;;5008954;28;21687;-69
2021/08/17 05:12:33;;;;;;;11.60;5.27;;;12.90;99.90;;;;;;5058323;28;20464;-69
2021/08/17 05:14:59;;;;;;;11.07;5.53;;;12.90;99.90;;;;;;5022082;28;20486;-69
2021/08/17 05:17:25;;;;;;;8.90;5.50;;;12.90;99.90;;;;;;4993257;28;20480;-69
2021/08/17 05:19:50;;;;;;;10.30;5.37;;;12.90;99.90;;;;;;4985006;28;20628;-71
2021/08/17 05:22:16;;;;;;;12.07;6.70;;;12.90;99.90;;;;;;4965838;28;20637;-69
2021/08/17 05:24:42;;;;;;;8.77;5.93;;;12.90;99.90;;;;;;4955291;28;20267;-69
2021/08/17 05:27:08;;;;;;;9.17;5.27;;;12.90;99.90;;;;;;4970423;28;20218;-69
2021/08/17 05:29:34;;;;;;;11.33;5.63;;;12.90;99.90;;;;;;5018182;28;20529;-69
2021/08/17 05:32:00;;;;;;;9.87;6.40;;;12.80;99.90;;;;;;4994830;28;20231;-70
2021/08/17 05:34:25;;;;;;;15.87;6.50;;;12.80;99.90;;;;;;5086154;28;20219;-70
2021/08/17 05:36:51;;;;;;;8.83;5.57;;;12.80;99.90;;;;;;5051447;28;20785;-70
2021/08/17 05:39:17;;;;;;;11.37;6.97;;;12.80;99.90;;;;;;4996915;28;20716;-69
2021/08/17 05:41:42;;;;;;;12.63;7.30;;;12.70;99.90;;;;;;5020940;28;20221;-70
2021/08/17 05:44:08;;;;;;;14.70;6.60;;;12.80;99.90;;;;;;5001626;28;20229;-70
2021/08/17 05:46:34;;;;;;;12.43;6.00;;;12.80;99.90;;;;;;5064042;28;20218;-69
2021/08/17 05:48:59;;;;;;;9.37;5.73;;;12.80;99.90;;;;;;5054305;28;20234;-67
2021/08/17 05:51:25;;;;;;;13.13;6.80;;;12.70;99.90;;;;;;5060061;28;20213;-69
2021/08/17 05:53:51;;;;;;;12.07;6.57;;;12.70;99.90;;;;;;5021683;28;20658;-70
2021/08/17 05:56:16;;;;;;;13.17;7.20;;;12.70;99.90;;;;;;5039016;28;20225;-70
2021/08/17 05:58:42;;;;;;;16.93;6.40;;;12.80;99.90;;;;;;5013899;28;20243;-69
2021/08/17 06:01:08;;;;;;;13.27;6.30;;;12.70;99.90;;;;;;5004022;28;20214;-70
2021/08/17 06:03:33;;;;;;;11.23;6.10;;;12.80;99.90;;;;;;5012057;28;20218;-69
2021/08/17 06:05:59;;;;;;;13.90;6.30;;;12.80;99.90;;;;;;5063943;28;20231;-69
2021/08/17 06:08:26;;;;;;;10.63;6.60;;;12.80;99.90;;;;;;5008118;28;20608;-69
2021/08/17 06:10:52;;;;;;;11.90;7.00;;;12.80;99.90;;;;;;4983729;28;20497;-69
2021/08/17 06:13:18;;;;;;;14.67;6.63;;;12.90;99.90;;;;;;5052951;28;20460;-69
2021/08/17 06:15:44;;;;;;;14.30;7.97;;;12.90;99.90;;;;;;5026105;28;20470;-70
2021/08/17 06:18:10;;;;;;;15.63;7.07;;;12.90;99.90;;;;;;5023538;28;20221;-69
2021/08/17 06:20:36;;;;;;;17.87;6.60;;;12.90;99.90;;;;;;5007886;28;20556;-69
2021/08/17 06:23:02;;;;;;;12.80;7.10;;;12.90;99.90;;;;;;5021769;28;20217;-69
2021/08/17 06:25:29;;;;;;;12.77;6.10;;;12.90;99.90;;;;;;5107835;28;20491;-70
2021/08/17 06:27:56;;;;;;;16.10;7.07;;;12.90;99.90;;;;;;5106530;28;20538;-68
2021/08/17 06:30:23;;;;;;;10.70;5.70;;;13.00;99.90;;;;;;5062980;28;20476;-70
2021/08/17 06:32:49;;;;;;;13.40;7.20;;;13.00;99.90;;;;;;5089424;28;20448;-70
2021/08/17 06:35:14;;;;;;;13.50;7.30;;;13.00;99.90;;;;;;5066251;28;20840;-69
2021/08/17 06:37:40;;;;;;;14.33;6.70;;;13.10;99.90;;;;;;4998577;28;20462;-69
2021/08/17 06:40:07;;;;;;;15.20;7.70;;;13.10;99.90;;;;;;5003535;28;20236;-69
2021/08/17 06:42:33;;;;;;;13.73;6.83;;;13.10;99.90;;;;;;4988859;28;21004;-69
2021/08/17 06:44:59;;;;;;;14.50;7.37;;;13.10;99.90;;;;;;5001531;28;20499;-70
2021/08/17 06:47:24;;;;;;;13.40;6.10;;;13.10;99.90;;;;;;5004821;28;20495;-69
2021/08/17 06:49:50;;;;;;;14.00;6.13;;;13.10;99.90;;;;;;4986482;28;20205;-69
2021/08/17 06:52:15;;;;;;;20.07;7.03;;;13.20;99.90;;;;;;4985651;28;20218;-69
2021/08/17 06:54:41;;;;;;;15.90;7.50;;;13.20;99.90;;;;;;5003077;28;20214;-69
2021/08/17 06:57:07;;;;;;;16.10;8.13;;;13.30;99.90;;;;;;5003054;28;20221;-68
2021/08/17 06:59:32;;;;;;;12.47;6.40;;;13.30;99.90;;;;;;4987970;28;20725;-70
2021/08/17 07:01:58;;;;;;;12.10;6.87;;;13.30;99.90;;;;;;4986591;28;20597;-69
2021/08/17 07:04:24;;;;;;;13.43;6.37;;;13.30;99.90;;;;;;4988290;28;20252;-69
2021/08/17 07:06:49;;;;;;;15.37;7.27;;;13.40;99.90;;;;;;5009794;28;20304;-70
2021/08/17 07:09:15;;;;;;;12.97;7.40;;;13.40;99.90;;;;;;5004887;28;20221;-70
2021/08/17 07:11:41;;;;;;;14.00;8.00;;;13.50;99.90;;;;;;4987956;28;20232;-69
2021/08/17 07:14:06;;;;;;;14.00;7.20;;;13.60;99.90;;;;;;5002717;28;20221;-69
2021/08/17 07:16:32;;;;;;;13.40;7.00;;;13.60;99.90;;;;;;4987566;28;20311;-70
2021/08/17 07:18:58;;;;;;;16.13;7.70;;;13.70;99.90;;;;;;5002767;28;20270;-69
2021/08/17 07:21:23;;;;;;;13.43;7.50;;;13.80;99.90;;;;;;4987056;28;20343;-68
2021/08/17 07:23:49;;;;;;;12.93;6.47;;;13.80;99.90;;;;;;4986016;28;20218;-70
2021/08/17 07:26:16;;;;;;;12.53;7.47;;;13.80;99.90;;;;;;5004347;28;20229;-70
2021/08/17 07:28:42;;;;;;;18.23;8.50;;;13.90;99.90;;;;;;4988466;28;20221;-70
2021/08/17 07:31:08;;;;;;;11.73;6.77;;;14.00;99.90;;;;;;4981918;28;20465;-70
2021/08/17 07:33:34;;;;;;;17.67;6.07;;;14.00;99.90;;;;;;5004345;28;20480;-69
2021/08/17 07:35:59;;;;;;;11.80;7.47;;;14.10;99.90;;;;;;4982148;28;20283;-69
2021/08/17 07:38:25;;;;;;;11.80;7.20;;;14.20;99.90;;;;;;5004221;28;20594;-69
2021/08/17 07:40:51;;;;;;;11.30;6.97;;;14.30;99.90;;;;;;5002065;28;20663;-70
2021/08/17 07:43:16;;;;;;;13.37;7.57;;;14.30;99.90;;;;;;5002218;28;20231;-70
2021/08/17 07:45:42;;;;;;;14.03;7.60;;;14.40;99.90;;;;;;4987423;28;20236;-70
2021/08/17 07:48:08;;;;;;;15.90;7.67;;;14.50;99.90;;;;;;5003870;28;20213;-70
2021/08/17 07:50:38;;;;;;;13.17;7.30;;;14.60;99.90;;;;;;4987160;28;20495;-70
2021/08/17 07:53:08;;;;;;;12.57;7.60;;;14.70;99.90;;;;;;5001662;28;20266;-68
2021/08/17 07:55:33;;;;;;;13.67;7.50;;;14.80;99.90;;;;;;5003079;28;20497;-70
2021/08/17 07:57:59;;;;;;;13.43;6.77;;;14.90;99.90;;;;;;5002437;28;20499;-70
2021/08/17 08:00:25;;;;;;;9.87;6.80;;;15.00;99.90;;;;;;4986012;28;20221;-70
2021/08/17 08:02:51;;;;;;;12.50;7.23;;;15.10;99.90;;;;;;4985303;28;20468;-71
2021/08/17 08:05:16;;;;;;;15.67;7.60;;;15.20;99.90;;;;;;5002432;28;20229;-68
2021/08/17 08:07:42;;;;;;;12.77;6.67;;;15.30;99.90;;;;;;4983698;28;20241;-70
2021/08/17 08:10:08;;;;;;;12.03;6.57;;;15.40;99.90;;;;;;5001225;28;20232;-70
2021/08/17 08:12:34;;;;;;;16.67;7.97;;;15.40;99.90;;;;;;5002098;28;20714;-70
2021/08/17 08:15:00;;;;;;;10.63;6.77;;;15.50;99.90;;;;;;4981388;28;20461;-70
2021/08/17 08:17:25;;;;;;;13.47;7.10;;;15.50;99.90;;;;;;5003244;28;20210;-70
2021/08/17 08:19:51;;;;;;;13.37;7.63;;;15.60;99.90;;;;;;4982383;28;20279;-69
2021/08/17 08:22:16;;;;;;;10.60;7.13;;;15.60;99.90;;;;;;4994523;28;20236;-69
2021/08/17 08:24:42;;;;;;;12.10;6.70;;;15.70;99.90;;;;;;4995596;28;20602;-70
2021/08/17 08:27:08;;;;;;;13.30;6.97;;;15.70;99.90;;;;;;5001505;28;20593;-70
2021/08/17 08:29:34;;;;;;;14.20;6.70;;;15.80;99.90;;;;;;5003641;28;20230;-70
2021/08/17 08:32:00;;;;;;;11.50;6.67;;;15.80;99.90;;;;;;5000705;28;20478;-70
2021/08/17 08:34:26;;;;;;;11.70;7.50;;;15.80;99.90;;;;;;5003259;28;20217;-69
2021/08/17 08:36:52;;;;;;;11.67;7.13;;;15.80;99.90;;;;;;4984113;28;20247;-70
2021/08/17 08:39:18;;;;;;;12.40;7.20;;;15.80;99.90;;;;;;5004713;28;20245;-69
2021/08/17 08:41:45;;;;;;;13.80;7.37;;;15.90;99.90;;;;;;5003075;28;20218;-70
2021/08/17 08:44:12;;;;;;;12.17;7.67;;;15.90;99.90;;;;;;5080662;28;20490;-70
2021/08/17 08:46:39;;;;;;;12.33;8.00;;;15.90;99.90;;;;;;5042302;28;21019;-69
2021/08/17 08:49:04;;;;;;;14.67;8.37;;;16.00;99.90;;;;;;4989915;28;20479;-70
2021/08/17 08:51:31;;;;;;;10.00;7.10;;;16.00;99.90;;;;;;5003525;28;20457;-70
2021/08/17 08:53:59;;;;;;;13.20;6.47;;;16.10;99.90;;;;;;4989395;28;20230;-70
2021/08/17 08:56:32;;;;;;;15.50;6.90;;;16.10;99.90;;;;;;5012488;28;20550;-70
2021/08/17 08:58:57;;;;;;;11.43;7.17;;;16.10;99.90;;;;;;4997453;28;20453;-68
2021/08/17 09:01:25;;;;;;;11.50;7.00;;;16.10;99.90;;;;;;4991276;28;20496;-70
2021/08/17 09:03:53;;;;;;;13.33;7.37;;;16.00;99.90;;;;;;5033178;28;20597;-70
2021/08/17 09:06:25;;;;;;;11.23;6.17;;;16.00;99.90;;;;;;5040747;28;20976;-70
2021/08/17 09:09:15;;;;;;;11.30;7.30;;;16.00;99.90;;;;;;5027502;28;20474;-70
2021/08/17 09:11:44;;;;;;;12.20;7.77;;;16.00;99.90;;;;;;5058086;28;20455;-69
2021/08/17 09:14:19;;;;;;;12.30;7.37;;;16.00;99.90;;;;;;5060201;28;20807;-69
2021/08/17 09:16:46;;;;;;;9.23;6.17;;;16.00;99.90;;;;;;5085074;28;20455;-70
2021/08/17 09:19:26;;;;;;;11.93;6.80;;;16.00;99.90;;;;;;5109926;28;20454;-70
2021/08/17 09:21:52;;;;;;;10.90;6.17;;;16.00;99.90;;;;;;5065597;28;20991;-69
2021/08/17 09:24:22;;;;;;;12.00;7.23;;;16.00;99.90;;;;;;5028083;28;20478;-70
2021/08/17 09:26:54;;;;;;;12.93;7.40;;;16.10;99.90;;;;;;5090784;28;20511;-70
2021/08/17 09:29:41;;;;;;;10.73;6.63;;;16.10;99.90;;;;;;5110165;28;20479;-69
2021/08/17 09:32:27;;;;;;;12.53;6.53;;;16.10;99.90;;;;;;5071048;28;20526;-69
2021/08/17 09:34:58;;;;;;;8.57;5.73;;;16.10;99.90;;;;;;4985860;28;20463;-69
2021/08/17 09:37:32;;;;;;;10.83;6.57;;;16.20;99.90;;;;;;5012587;28;20471;-69
2021/08/17 09:40:00;;;;;;;13.70;7.40;;;16.20;99.90;;;;;;4991084;28;20464;-70
2021/08/17 09:42:31;;;;;;;10.70;6.80;;;16.20;99.90;;;;;;5055474;28;20546;-70
2021/08/17 09:45:06;;;;;;;9.40;6.00;;;16.20;99.90;;;;;;4996335;28;20524;-70
2021/08/17 09:47:38;;;;;;;14.20;9.07;;;16.20;99.90;;;;;;4996607;28;20856;-69
2021/08/17 09:50:28;;;;;;;12.00;6.50;;;16.20;99.90;;;;;;4996853;28;20468;-69
2021/08/17 09:53:17;;;;;;;14.20;6.20;;;16.20;99.90;;;;;;5004039;28;20885;-70
2021/08/17 09:55:51;;;;;;;12.60;7.30;;;16.30;99.90;;;;;;4989045;28;20452;-69
2021/08/17 09:58:18;;;;;;;15.17;7.50;;;16.40;99.90;;;;;;5055096;27;20452;-68
2021/08/17 10:00:46;;;;;;;11.07;6.77;;;16.40;99.90;;;;;;5080489;27;20962;-69
2021/08/17 10:03:14;;;;;;;10.87;7.60;;;16.50;99.90;;;;;;5020813;28;20448;-69
2021/08/17 10:05:41;;;;;;;9.60;5.80;;;16.60;99.90;;;;;;4999995;28;20507;-69
2021/08/17 10:08:11;;;;;;;8.23;5.70;;;16.70;99.90;;;;;;5082156;28;20455;-69
2021/08/17 10:10:37;;;;;;;11.80;7.40;;;16.70;99.90;;;;;;5043790;28;20460;-70
2021/08/17 10:13:03;;;;;;;10.23;7.10;;;16.90;99.90;;;;;;5018914;28;20831;-69
2021/08/17 10:15:29;;;;;;;9.00;6.13;;;17.00;99.90;;;;;;5043554;28;20458;-69
2021/08/17 10:18:01;;;;;;;9.67;6.37;;;17.10;99.90;;;;;;5021984;28;20220;-70
2021/08/17 10:20:28;;;;;;;7.93;5.27;;;17.30;99.90;;;;;;5048084;28;20313;-69
2021/08/17 10:22:54;;;;;;;9.30;6.83;;;17.40;99.90;;;;;;5005381;28;20548;-70
2021/08/17 10:25:22;;;;;;;10.27;7.13;;;17.60;99.90;;;;;;5027160;28;20514;-70
2021/08/17 10:27:48;;;;;;;7.90;5.80;;;17.70;99.90;;;;;;5083526;28;20493;-69
2021/08/17 10:30:21;;;;;;;9.93;6.63;;;17.90;99.90;;;;;;5008002;28;20977;-70
2021/08/17 10:32:58;;;;;;;9.33;5.67;;;18.00;99.90;;;;;;4991020;28;20226;-69
2021/08/17 10:35:29;;;;;;;8.93;5.30;;;18.10;99.90;;;;;;4981064;28;20468;-69
2021/08/17 10:38:10;;;;;;;9.73;6.43;;;18.20;99.90;;;;;;4985786;28;21087;-70
2021/08/17 10:40:51;;;;;;;8.13;5.80;;;18.40;99.90;;;;;;5005134;28;20517;-70
2021/08/17 10:43:46;;;;;;;8.37;5.23;;;18.50;99.90;;;;;;4979366;28;20457;-70
2021/08/17 10:46:13;;;;;;;8.80;5.80;;;18.60;99.90;;;;;;5003299;28;20492;-70
2021/08/17 10:48:54;;;;;;;7.67;5.27;;;18.60;99.90;;;;;;5003121;28;20460;-70
2021/08/17 10:51:19;;;;;;;9.50;5.20;;;18.70;99.90;;;;;;5013842;28;20475;-70
2021/08/17 10:53:47;;;;;;;9.93;6.10;;;18.80;99.90;;;;;;5015163;28;21019;-69
2021/08/17 10:56:16;;;;;;;7.57;5.50;;;18.90;99.90;;;;;;5003165;28;20660;-70
2021/08/17 10:58:50;;;;;;;7.80;5.20;;;19.00;99.90;;;;;;5053813;28;20479;-70
2021/08/17 11:01:34;;;;;;;12.23;6.50;;;19.10;99.90;;;;;;5026618;28;20478;-70
2021/08/17 11:04:05;;;;;;;7.63;4.63;;;19.30;99.90;;;;;;4985367;28;20497;-70
2021/08/17 11:06:45;;;;;;;8.50;5.10;;;19.40;99.90;;;;;;5000627;28;20473;-70
2021/08/17 11:09:13;;;;;;;5.80;4.90;;;19.40;99.90;;;;;;4994316;28;20448;-69
2021/08/17 11:11:40;;;;;;;14.33;4.73;;;19.60;99.90;;;;;;5018414;27;20756;-70
2021/08/17 11:14:10;;;;;;;7.87;5.20;;;19.70;99.90;;;;;;5025050;28;20823;-69
2021/08/17 11:16:56;;;;;;;10.23;5.30;;;19.70;99.90;;;;;;5102482;28;20475;-70
2021/08/17 11:19:25;;;;;;;8.53;5.00;;;19.80;99.90;;;;;;4984665;28;20903;-70
2021/08/17 11:21:54;;;;;;;5.20;4.27;;;19.80;99.90;;;;;;4985181;28;20464;-71
2021/08/17 11:24:20;;;;;;;7.83;5.43;;;19.90;99.90;;;;;;4992483;28;20494;-70
2021/08/17 11:27:02;;;;;;;6.23;4.90;;;20.00;99.90;;;;;;5014647;28;20484;-69
2021/08/17 11:29:56;;;;;;;8.00;5.50;;;20.00;99.70;;;;;;5089071;28;20244;-70
2021/08/17 11:32:32;;;;;;;6.00;4.63;;;20.00;99.40;;;;;;5100024;28;20451;-70
2021/08/17 11:35:11;;;;;;;8.20;7.00;;;20.00;98.70;;;;;;5086533;28;20504;-70
2021/08/17 11:37:43;;;;;;;9.27;6.23;;;19.90;98.90;;;;;;4994607;28;20461;-70
2021/08/17 11:40:15;;;;;;;8.00;5.10;;;19.90;99.10;;;;;;4982022;28;20453;-70
2021/08/17 11:42:43;;;;;;;6.47;5.00;;;19.90;98.90;;;;;;4983397;28;20449;-70
2021/08/17 11:45:31;;;;;;;10.07;5.50;;;19.90;98.50;;;;;;4982487;28;20469;-70
2021/08/17 11:48:00;;;;;;;8.47;4.93;;;19.90;98.30;;;;;;4965597;28;20465;-68
2021/08/17 11:50:26;;;;;;;8.40;5.27;;;19.80;97.10;;;;;;5011166;28;20489;-70
2021/08/17 11:52:53;;;;;;;6.23;4.53;;;19.80;96.50;;;;;;4978235;28;20462;-70
2021/08/17 11:55:25;;;;;;;6.97;4.23;;;19.70;95.90;;;;;;4965394;28;20755;-70
2021/08/17 11:58:04;;;;;;;5.70;4.10;;;19.60;96.00;;;;;;5048871;27;20831;-70
2021/08/17 12:00:32;;;;;;;5.90;4.10;;;19.50;95.50;;;;;;5088760;28;20846;-70
2021/08/17 12:03:06;;;;;;;6.40;4.63;;;19.50;96.10;;;;;;5087005;28;20866;-70
2021/08/17 12:05:37;;;;;;;5.70;4.70;;;19.50;95.60;;;;;;5080833;27;20478;-70
2021/08/17 12:08:05;;;;;;;7.60;4.80;;;19.40;95.70;;;;;;5025066;28;21007;-70
2021/08/17 12:10:33;;;;;;;6.67;4.87;;;19.30;95.60;;;;;;4974868;28;20453;-70
2021/08/17 12:13:04;;;;;;;8.13;4.40;;;19.30;95.60;;;;;;4964892;28;20461;-70
2021/08/17 12:15:37;;;;;;;7.57;5.00;;;19.30;95.60;;;;;;4982882;28;20503;-70
2021/08/17 12:18:31;;;;;;;5.00;4.00;;;19.20;95.60;;;;;;4974613;28;20584;-69
2021/08/17 12:21:05;;;;;;;7.60;4.93;;;19.20;96.10;;;;;;4997125;28;20464;-70
2021/08/17 12:23:34;;;;;;;7.77;5.87;;;19.30;96.30;;;;;;4970809;28;20492;-70
2021/08/17 12:26:11;;;;;;;9.27;6.10;;;19.20;96.30;;;;;;4999644;28;21032;-70
2021/08/17 12:28:37;;;;;;;7.20;5.30;;;19.20;96.10;;;;;;4986288;28;20464;-70
2021/08/17 12:31:18;;;;;;;7.93;5.87;;;19.10;96.10;;;;;;5000253;28;20467;-68
2021/08/17 12:33:53;;;;;;;8.80;5.23;;;19.10;96.10;;;;;;5001243;28;20277;-70
2021/08/17 12:36:21;;;;;;;6.80;5.47;;;19.10;96.20;;;;;;5096230;28;20471;-70
2021/08/17 12:38:47;;;;;;;6.60;5.00;;;19.10;96.40;;;;;;5023134;28;20466;-70
2021/08/17 12:41:34;;;;;;;8.90;5.83;;;19.10;96.50;;;;;;5073016;28;20479;-69
2021/08/17 12:44:01;;;;;;;10.60;6.37;;;19.10;96.60;;;;;;5059667;28;20900;-69
2021/08/17 12:46:27;;;;;;;9.53;7.20;;;19.10;96.80;;;;;;5020597;28;20473;-70